Landa, North Dakota
Current Conditions -  °F | °C
As of 1:58 AM on Sunday 23 Nov 2014 (Local Time) from KMIB Reporting Station
Clear Clear  
Wind Chill: 28°   Ceiling: Unl
Heat Index: 37°   Visibility: 10mi
Dew Point: 30°   Wind: 15mph
Humidity: 76%   Direction: 270°W
Pressure: 29.28"   Gusts: NA
Location:  48.9505°N, 100.734°W
Report Text: KMIB 230758Z AUTO 27013KT 10SM CLR 03/M01 A2928 RMK AO2 SLP932 T00291009
Loading
Personal Weather Stations






























Interactive Weather Map New forecast layout! Learn more

10-Day Weather Forecast

Advertisements
Track Severe Weather on mobile